sensor_id;sensor_type;location;lat;lon;timestamp;temperature;humidity
10530;DHT22;5313;48.834;9.228;2023-02-24T00:02:00;9.90;99.90
10530;DHT22;5313;48.834;9.228;2023-02-24T00:04:28;9.80;99.90
10530;DHT22;5313;48.834;9.228;2023-02-24T00:06:54;9.90;99.90
10530;DHT22;5313;48.834;9.228;2023-02-24T00:09:22;10.00;99.90
10530;DHT22;5313;48.834;9.228;2023-02-24T00:11:58;10.10;99.90
10530;DHT22;5313;48.834;9.228;2023-02-24T00:14:31;10.10;99.90
10530;DHT22;5313;48.834;9.228;2023-02-24T00:16:57;10.20;99.90
10530;DHT22;5313;48.834;9.228;2023-02-24T00:19:24;10.10;99.90
10530;DHT22;5313;48.834;9.228;2023-02-24T00:21:51;10.10;99.90
10530;DHT22;5313;48.834;9.228;2023-02-24T00:24:19;10.00;99.90
10530;DHT22;5313;48.834;9.228;2023-02-24T00:26:45;10.00;99.90
10530;DHT22;5313;48.834;9.228;2023-02-24T00:29:11;10.10;99.90
10530;DHT22;5313;48.834;9.228;2023-02-24T00:31:38;10.20;99.90
10530;DHT22;5313;48.834;9.228;2023-02-24T00:34:07;10.20;99.90
10530;DHT22;5313;48.834;9.228;2023-02-24T00:36:32;10.30;99.90
10530;DHT22;5313;48.834;9.228;2023-02-24T00:39:06;10.40;99.90
10530;DHT22;5313;48.834;9.228;2023-02-24T00:41:38;10.40;99.90
10530;DHT22;5313;48.834;9.228;2023-02-24T00:44:06;10.40;99.90
10530;DHT22;5313;48.834;9.228;2023-02-24T00:46:39;10.40;99.90
10530;DHT22;5313;48.834;9.228;2023-02-24T00:49:07;10.40;99.90
10530;DHT22;5313;48.834;9.228;2023-02-24T00:51:42;10.30;99.90
10530;DHT22;5313;48.834;9.228;2023-02-24T00:54:08;10.30;99.90
10530;DHT22;5313;48.834;9.228;2023-02-24T00:56:34;10.10;99.90
10530;DHT22;5313;48.834;9.228;2023-02-24T00:59:01;10.00;99.90
10530;DHT22;5313;48.834;9.228;2023-02-24T01:01:30;10.00;99.90
10530;DHT22;5313;48.834;9.228;2023-02-24T01:03:57;10.00;99.90
10530;DHT22;5313;48.834;9.228;2023-02-24T01:06:25;10.00;99.90
10530;DHT22;5313;48.834;9.228;2023-02-24T01:08:52;10.00;99.90
10530;DHT22;5313;48.834;9.228;2023-02-24T01:11:21;9.90;99.90
10530;DHT22;5313;48.834;9.228;2023-02-24T01:14:13;9.90;99.90
10530;DHT22;5313;48.834;9.228;2023-02-24T01:16:40;9.90;99.90
10530;DHT22;5313;48.834;9.228;2023-02-24T01:19:06;9.90;99.90
10530;DHT22;5313;48.834;9.228;2023-02-24T01:21:32;9.90;99.90
10530;DHT22;5313;48.834;9.228;2023-02-24T01:23:58;9.90;99.90
10530;DHT22;5313;48.834;9.228;2023-02-24T01:26:23;9.70;99.90
10530;DHT22;5313;48.834;9.228;2023-02-24T01:28:52;9.60;99.90
10530;DHT22;5313;48.834;9.228;2023-02-24T01:31:19;9.60;99.90
10530;DHT22;5313;48.834;9.228;2023-02-24T01:33:50;9.60;99.90
10530;DHT22;5313;48.834;9.228;2023-02-24T01:36:22;9.50;99.90
10530;DHT22;5313;48.834;9.228;2023-02-24T01:38:48;9.40;99.90
10530;DHT22;5313;48.834;9.228;2023-02-24T01:41:20;9.30;99.90
10530;DHT22;5313;48.834;9.228;2023-02-24T01:46:55;9.40;99.90
10530;DHT22;5313;48.834;9.228;2023-02-24T01:49:28;9.30;99.90
10530;DHT22;5313;48.834;9.228;2023-02-24T01:52:07;9.30;99.90
10530;DHT22;5313;48.834;9.228;2023-02-24T01:54:43;9.30;99.90
10530;DHT22;5313;48.834;9.228;2023-02-24T01:57:13;9.30;99.90
10530;DHT22;5313;48.834;9.228;2023-02-24T01:59:42;9.30;99.90
10530;DHT22;5313;48.834;9.228;2023-02-24T02:02:08;9.30;99.90
10530;DHT22;5313;48.834;9.228;2023-02-24T02:07:05;9.40;99.90
10530;DHT22;5313;48.834;9.228;2023-02-24T02:09:35;9.40;99.90
10530;DHT22;5313;48.834;9.228;2023-02-24T02:12:00;9.40;99.90
10530;DHT22;5313;48.834;9.228;2023-02-24T02:14:26;9.40;99.90
10530;DHT22;5313;48.834;9.228;2023-02-24T02:17:16;9.50;99.90
10530;DHT22;5313;48.834;9.228;2023-02-24T02:20:10;9.50;99.90
10530;DHT22;5313;48.834;9.228;2023-02-24T02:26:43;9.50;99.90
10530;DHT22;5313;48.834;9.228;2023-02-24T02:28:54;9.40;99.90
10530;DHT22;5313;48.834;9.228;2023-02-24T02:34:42;9.40;99.90
10530;DHT22;5313;48.834;9.228;2023-02-24T02:37:19;9.50;99.90
10530;DHT22;5313;48.834;9.228;2023-02-24T02:39:57;9.50;99.90
10530;DHT22;5313;48.834;9.228;2023-02-24T02:42:33;9.40;99.90
10530;DHT22;5313;48.834;9.228;2023-02-24T02:45:10;9.50;99.90
10530;DHT22;5313;48.834;9.228;2023-02-24T02:47:49;9.60;99.90
10530;DHT22;5313;48.834;9.228;2023-02-24T02:53:00;9.40;99.90
10530;DHT22;5313;48.834;9.228;2023-02-24T02:55:48;9.40;99.90
10530;DHT22;5313;48.834;9.228;2023-02-24T02:58:23;9.40;99.90
10530;DHT22;5313;48.834;9.228;2023-02-24T03:00:53;9.30;99.90
10530;DHT22;5313;48.834;9.228;2023-02-24T03:03:29;9.30;99.90
10530;DHT22;5313;48.834;9.228;2023-02-24T03:06:02;9.30;99.90
10530;DHT22;5313;48.834;9.228;2023-02-24T03:08:30;9.30;99.90
10530;DHT22;5313;48.834;9.228;2023-02-24T03:11:00;9.20;99.90
10530;DHT22;5313;48.834;9.228;2023-02-24T03:13:28;9.30;99.90
10530;DHT22;5313;48.834;9.228;2023-02-24T03:15:59;9.30;99.90
10530;DHT22;5313;48.834;9.228;2023-02-24T03:18:30;9.30;99.90
10530;DHT22;5313;48.834;9.228;2023-02-24T03:21:03;9.20;99.90
10530;DHT22;5313;48.834;9.228;2023-02-24T03:23:34;9.30;99.90
10530;DHT22;5313;48.834;9.228;2023-02-24T03:26:14;9.30;99.90
10530;DHT22;5313;48.834;9.228;2023-02-24T03:31:32;9.30;99.90
10530;DHT22;5313;48.834;9.228;2023-02-24T03:34:12;9.30;99.90
10530;DHT22;5313;48.834;9.228;2023-02-24T03:36:39;9.30;99.90
10530;DHT22;5313;48.834;9.228;2023-02-24T03:39:05;9.20;99.90
10530;DHT22;5313;48.834;9.228;2023-02-24T03:41:39;9.10;99.90
10530;DHT22;5313;48.834;9.228;2023-02-24T03:44:09;9.10;99.90
10530;DHT22;5313;48.834;9.228;2023-02-24T03:46:36;9.10;99.90
10530;DHT22;5313;48.834;9.228;2023-02-24T03:49:08;9.10;99.90
10530;DHT22;5313;48.834;9.228;2023-02-24T03:51:46;9.10;99.90
10530;DHT22;5313;48.834;9.228;2023-02-24T04:00:13;9.20;99.90
10530;DHT22;5313;48.834;9.228;2023-02-24T04:03:00;9.20;99.90
10530;DHT22;5313;48.834;9.228;2023-02-24T04:05:29;9.20;99.90
10530;DHT22;5313;48.834;9.228;2023-02-24T04:08:02;9.10;99.90
10530;DHT22;5313;48.834;9.228;2023-02-24T04:13:32;9.10;99.90
10530;DHT22;5313;48.834;9.228;2023-02-24T04:16:28;9.20;99.90
10530;DHT22;5313;48.834;9.228;2023-02-24T04:19:04;9.20;99.90
10530;DHT22;5313;48.834;9.228;2023-02-24T04:21:32;9.20;99.90
10530;DHT22;5313;48.834;9.228;2023-02-24T04:24:00;9.20;99.90
10530;DHT22;5313;48.834;9.228;2023-02-24T04:26:28;9.20;99.90
10530;DHT22;5313;48.834;9.228;2023-02-24T04:28:55;9.10;99.90
10530;DHT22;5313;48.834;9.228;2023-02-24T04:31:21;9.10;99.90
10530;DHT22;5313;48.834;9.228;2023-02-24T04:33:49;9.00;99.90
10530;DHT22;5313;48.834;9.228;2023-02-24T04:36:19;9.00;99.90
10530;DHT22;5313;48.834;9.228;2023-02-24T04:38:45;9.00;99.90
10530;DHT22;5313;48.834;9.228;2023-02-24T04:41:13;8.90;99.90
10530;DHT22;5313;48.834;9.228;2023-02-24T04:43:48;8.90;99.90
10530;DHT22;5313;48.834;9.228;2023-02-24T04:46:16;8.80;99.90
10530;DHT22;5313;48.834;9.228;2023-02-24T04:48:41;8.80;99.90
10530;DHT22;5313;48.834;9.228;2023-02-24T04:51:07;8.80;99.90
10530;DHT22;5313;48.834;9.228;2023-02-24T04:53:32;8.80;99.90
10530;DHT22;5313;48.834;9.228;2023-02-24T04:56:01;8.70;99.90
10530;DHT22;5313;48.834;9.228;2023-02-24T04:58:32;8.70;99.90
10530;DHT22;5313;48.834;9.228;2023-02-24T05:00:58;8.70;99.90
10530;DHT22;5313;48.834;9.228;2023-02-24T05:03:25;8.70;99.90
10530;DHT22;5313;48.834;9.228;2023-02-24T05:05:58;8.70;99.90
10530;DHT22;5313;48.834;9.228;2023-02-24T05:08:25;8.70;99.90
10530;DHT22;5313;48.834;9.228;2023-02-24T05:10:52;8.70;99.90
10530;DHT22;5313;48.834;9.228;2023-02-24T05:13:21;8.70;99.90
10530;DHT22;5313;48.834;9.228;2023-02-24T05:15:50;8.70;99.90
10530;DHT22;5313;48.834;9.228;2023-02-24T05:18:16;8.70;99.90
10530;DHT22;5313;48.834;9.228;2023-02-24T05:20:45;8.70;99.90
10530;DHT22;5313;48.834;9.228;2023-02-24T05:23:38;8.70;99.90
10530;DHT22;5313;48.834;9.228;2023-02-24T05:26:06;8.60;99.90
10530;DHT22;5313;48.834;9.228;2023-02-24T05:28:34;8.60;99.90
10530;DHT22;5313;48.834;9.228;2023-02-24T05:31:18;8.70;99.90
10530;DHT22;5313;48.834;9.228;2023-02-24T05:33:45;8.70;99.90
10530;DHT22;5313;48.834;9.228;2023-02-24T05:36:15;8.80;99.90
10530;DHT22;5313;48.834;9.228;2023-02-24T05:38:42;8.80;99.90
10530;DHT22;5313;48.834;9.228;2023-02-24T05:41:17;8.90;99.90
10530;DHT22;5313;48.834;9.228;2023-02-24T05:43:45;8.80;99.90
10530;DHT22;5313;48.834;9.228;2023-02-24T05:46:18;8.70;99.90
10530;DHT22;5313;48.834;9.228;2023-02-24T05:48:48;8.60;99.90
10530;DHT22;5313;48.834;9.228;2023-02-24T05:51:15;8.70;99.90
10530;DHT22;5313;48.834;9.228;2023-02-24T05:53:41;8.70;99.90
10530;DHT22;5313;48.834;9.228;2023-02-24T05:56:08;8.60;99.90
10530;DHT22;5313;48.834;9.228;2023-02-24T05:58:34;8.70;99.90
10530;DHT22;5313;48.834;9.228;2023-02-24T06:01:11;8.60;99.90
10530;DHT22;5313;48.834;9.228;2023-02-24T06:03:44;8.60;99.90
10530;DHT22;5313;48.834;9.228;2023-02-24T06:06:14;8.60;99.90
10530;DHT22;5313;48.834;9.228;2023-02-24T06:08:40;8.60;99.90
10530;DHT22;5313;48.834;9.228;2023-02-24T06:11:18;8.60;99.90
10530;DHT22;5313;48.834;9.228;2023-02-24T06:13:45;8.50;99.90
10530;DHT22;5313;48.834;9.228;2023-02-24T06:16:16;8.50;99.90
10530;DHT22;5313;48.834;9.228;2023-02-24T06:18:42;8.50;99.90
10530;DHT22;5313;48.834;9.228;2023-02-24T06:21:09;8.40;99.90
10530;DHT22;5313;48.834;9.228;2023-02-24T06:23:38;8.50;99.90
10530;DHT22;5313;48.834;9.228;2023-02-24T06:26:04;8.50;99.90
10530;DHT22;5313;48.834;9.228;2023-02-24T06:28:30;8.50;99.90
10530;DHT22;5313;48.834;9.228;2023-02-24T06:31:01;8.50;99.90
10530;DHT22;5313;48.834;9.228;2023-02-24T06:33:27;8.50;99.90
10530;DHT22;5313;48.834;9.228;2023-02-24T06:35:52;8.50;99.90
10530;DHT22;5313;48.834;9.228;2023-02-24T06:38:18;8.50;99.90
10530;DHT22;5313;48.834;9.228;2023-02-24T06:40:43;8.50;99.90
10530;DHT22;5313;48.834;9.228;2023-02-24T06:43:11;8.50;99.90
10530;DHT22;5313;48.834;9.228;2023-02-24T06:45:37;8.50;99.90
10530;DHT22;5313;48.834;9.228;2023-02-24T06:48:02;8.60;99.90
10530;DHT22;5313;48.834;9.228;2023-02-24T06:50:28;8.60;99.90
10530;DHT22;5313;48.834;9.228;2023-02-24T06:52:54;8.60;99.90
10530;DHT22;5313;48.834;9.228;2023-02-24T06:55:25;8.60;99.90
10530;DHT22;5313;48.834;9.228;2023-02-24T06:57:56;8.50;99.90
10530;DHT22;5313;48.834;9.228;2023-02-24T07:00:26;8.50;99.90
10530;DHT22;5313;48.834;9.228;2023-02-24T07:03:02;8.40;99.90
10530;DHT22;5313;48.834;9.228;2023-02-24T07:08:08;8.40;99.90
10530;DHT22;5313;48.834;9.228;2023-02-24T07:10:33;8.40;99.90
10530;DHT22;5313;48.834;9.228;2023-02-24T07:12:59;8.40;99.90
10530;DHT22;5313;48.834;9.228;2023-02-24T07:15:25;8.40;99.90
10530;DHT22;5313;48.834;9.228;2023-02-24T07:17:56;8.50;99.90
10530;DHT22;5313;48.834;9.228;2023-02-24T07:20:22;8.40;99.90
10530;DHT22;5313;48.834;9.228;2023-02-24T07:22:50;8.50;99.90
10530;DHT22;5313;48.834;9.228;2023-02-24T07:25:16;8.50;99.90
10530;DHT22;5313;48.834;9.228;2023-02-24T07:28:00;8.50;99.90
10530;DHT22;5313;48.834;9.228;2023-02-24T07:30:29;8.50;99.90
10530;DHT22;5313;48.834;9.228;2023-02-24T07:32:56;8.40;99.90
10530;DHT22;5313;48.834;9.228;2023-02-24T07:35:21;8.50;99.90
10530;DHT22;5313;48.834;9.228;2023-02-24T07:37:48;8.50;99.90
10530;DHT22;5313;48.834;9.228;2023-02-24T07:40:14;8.60;99.90
10530;DHT22;5313;48.834;9.228;2023-02-24T07:42:42;8.60;99.90
10530;DHT22;5313;48.834;9.228;2023-02-24T07:45:08;8.60;99.90
10530;DHT22;5313;48.834;9.228;2023-02-24T07:47:34;8.50;99.90
10530;DHT22;5313;48.834;9.228;2023-02-24T07:50:00;8.50;99.90
10530;DHT22;5313;48.834;9.228;2023-02-24T07:52:27;8.50;99.90
10530;DHT22;5313;48.834;9.228;2023-02-24T07:54:56;8.60;99.90
10530;DHT22;5313;48.834;9.228;2023-02-24T07:57:23;8.50;99.90
10530;DHT22;5313;48.834;9.228;2023-02-24T07:59:49;8.60;99.90
10530;DHT22;5313;48.834;9.228;2023-02-24T08:02:15;8.60;99.90
10530;DHT22;5313;48.834;9.228;2023-02-24T08:04:41;8.60;99.90
10530;DHT22;5313;48.834;9.228;2023-02-24T08:07:14;8.60;99.90
10530;DHT22;5313;48.834;9.228;2023-02-24T08:09:40;8.60;99.90
10530;DHT22;5313;48.834;9.228;2023-02-24T08:12:31;8.60;99.90
10530;DHT22;5313;48.834;9.228;2023-02-24T08:14:59;8.50;99.90
10530;DHT22;5313;48.834;9.228;2023-02-24T08:17:33;8.60;99.90
10530;DHT22;5313;48.834;9.228;2023-02-24T08:19:59;8.60;99.90
10530;DHT22;5313;48.834;9.228;2023-02-24T08:22:37;8.60;99.90
10530;DHT22;5313;48.834;9.228;2023-02-24T08:25:03;8.70;99.90
10530;DHT22;5313;48.834;9.228;2023-02-24T08:27:34;8.70;99.90
10530;DHT22;5313;48.834;9.228;2023-02-24T08:30:07;8.80;99.90
10530;DHT22;5313;48.834;9.228;2023-02-24T08:32:41;8.80;99.90
10530;DHT22;5313;48.834;9.228;2023-02-24T08:35:15;8.80;99.90
10530;DHT22;5313;48.834;9.228;2023-02-24T08:37:46;8.90;99.90
10530;DHT22;5313;48.834;9.228;2023-02-24T08:40:18;8.80;99.90
10530;DHT22;5313;48.834;9.228;2023-02-24T08:43:39;8.80;99.90
10530;DHT22;5313;48.834;9.228;2023-02-24T08:48:34;8.80;99.90
10530;DHT22;5313;48.834;9.228;2023-02-24T08:51:13;9.00;99.90
10530;DHT22;5313;48.834;9.228;2023-02-24T08:53:47;8.30;99.90
10530;DHT22;5313;48.834;9.228;2023-02-24T08:56:15;8.90;99.90
10530;DHT22;5313;48.834;9.228;2023-02-24T08:58:49;9.00;99.90
10530;DHT22;5313;48.834;9.228;2023-02-24T09:01:26;9.10;99.90
10530;DHT22;5313;48.834;9.228;2023-02-24T09:03:54;9.10;99.90
10530;DHT22;5313;48.834;9.228;2023-02-24T09:06:33;9.20;99.90
10530;DHT22;5313;48.834;9.228;2023-02-24T09:09:00;9.30;99.90
10530;DHT22;5313;48.834;9.228;2023-02-24T09:11:56;9.20;99.90
10530;DHT22;5313;48.834;9.228;2023-02-24T09:14:28;9.30;99.90
10530;DHT22;5313;48.834;9.228;2023-02-24T09:16:56;9.30;99.90
10530;DHT22;5313;48.834;9.228;2023-02-24T09:22:10;9.30;99.90
10530;DHT22;5313;48.834;9.228;2023-02-24T09:24:58;9.30;99.90
10530;DHT22;5313;48.834;9.228;2023-02-24T09:27:46;9.30;99.90
10530;DHT22;5313;48.834;9.228;2023-02-24T09:30:26;9.40;99.90
10530;DHT22;5313;48.834;9.228;2023-02-24T09:33:17;9.50;99.90
10530;DHT22;5313;48.834;9.228;2023-02-24T09:35:58;9.40;99.90
10530;DHT22;5313;48.834;9.228;2023-02-24T09:46:56;9.60;99.90
10530;DHT22;5313;48.834;9.228;2023-02-24T09:49:41;9.60;99.90
10530;DHT22;5313;48.834;9.228;2023-02-24T09:52:13;9.60;99.90
10530;DHT22;5313;48.834;9.228;2023-02-24T09:54:43;9.70;99.90
10530;DHT22;5313;48.834;9.228;2023-02-24T09:57:29;9.70;99.90
10530;DHT22;5313;48.834;9.228;2023-02-24T10:00:06;9.90;99.90
10530;DHT22;5313;48.834;9.228;2023-02-24T10:02:59;10.00;99.90
10530;DHT22;5313;48.834;9.228;2023-02-24T10:05:46;10.10;99.90
10530;DHT22;5313;48.834;9.228;2023-02-24T10:08:21;10.10;99.90
10530;DHT22;5313;48.834;9.228;2023-02-24T10:10:50;10.10;99.90
10530;DHT22;5313;48.834;9.228;2023-02-24T10:13:33;10.20;99.90
10530;DHT22;5313;48.834;9.228;2023-02-24T10:16:03;10.40;99.90
10530;DHT22;5313;48.834;9.228;2023-02-24T10:24:13;10.50;99.90
10530;DHT22;5313;48.834;9.228;2023-02-24T10:26:46;10.50;99.90
10530;DHT22;5313;48.834;9.228;2023-02-24T10:32:23;10.20;99.90
10530;DHT22;5313;48.834;9.228;2023-02-24T10:34:56;10.10;99.90
10530;DHT22;5313;48.834;9.228;2023-02-24T10:37:23;10.00;99.90
10530;DHT22;5313;48.834;9.228;2023-02-24T10:39:58;9.90;99.90
10530;DHT22;5313;48.834;9.228;2023-02-24T10:42:30;9.90;99.90
10530;DHT22;5313;48.834;9.228;2023-02-24T10:45:15;9.70;99.90
10530;DHT22;5313;48.834;9.228;2023-02-24T10:47:43;9.70;99.90
10530;DHT22;5313;48.834;9.228;2023-02-24T10:52:53;9.60;99.90
10530;DHT22;5313;48.834;9.228;2023-02-24T10:55:32;9.60;99.90
10530;DHT22;5313;48.834;9.228;2023-02-24T10:58:14;9.60;99.90
10530;DHT22;5313;48.834;9.228;2023-02-24T11:00:52;9.50;99.90
10530;DHT22;5313;48.834;9.228;2023-02-24T11:03:50;9.60;99.90
10530;DHT22;5313;48.834;9.228;2023-02-24T11:06:28;9.60;99.90
10530;DHT22;5313;48.834;9.228;2023-02-24T11:09:17;9.70;99.90
10530;DHT22;5313;48.834;9.228;2023-02-24T11:11:47;8.60;99.90
10530;DHT22;5313;48.834;9.228;2023-02-24T11:14:38;9.70;99.90
10530;DHT22;5313;48.834;9.228;2023-02-24T11:17:29;9.80;99.90
10530;DHT22;5313;48.834;9.228;2023-02-24T11:20:25;9.80;99.90
10530;DHT22;5313;48.834;9.228;2023-02-24T11:22:51;9.80;99.90
10530;DHT22;5313;48.834;9.228;2023-02-24T11:25:37;9.70;99.90
10530;DHT22;5313;48.834;9.228;2023-02-24T11:33:29;9.50;99.90
10530;DHT22;5313;48.834;9.228;2023-02-24T11:41:39;9.50;99.90
10530;DHT22;5313;48.834;9.228;2023-02-24T11:44:24;9.40;99.90
10530;DHT22;5313;48.834;9.228;2023-02-24T11:46:58;9.40;99.90
10530;DHT22;5313;48.834;9.228;2023-02-24T11:49:34;9.40;99.90
10530;DHT22;5313;48.834;9.228;2023-02-24T11:52:02;9.50;99.90
10530;DHT22;5313;48.834;9.228;2023-02-24T11:54:39;9.50;99.90
10530;DHT22;5313;48.834;9.228;2023-02-24T11:57:12;9.50;99.90
10530;DHT22;5313;48.834;9.228;2023-02-24T11:59:51;9.50;99.90
10530;DHT22;5313;48.834;9.228;2023-02-24T12:02:56;9.50;99.90
10530;DHT22;5313;48.834;9.228;2023-02-24T12:05:26;9.40;99.90
10530;DHT22;5313;48.834;9.228;2023-02-24T12:08:17;9.30;99.90
10530;DHT22;5313;48.834;9.228;2023-02-24T12:11:35;9.50;99.90
10530;DHT22;5313;48.834;9.228;2023-02-24T12:14:12;9.70;99.90
10530;DHT22;5313;48.834;9.228;2023-02-24T12:16:43;9.80;99.90
10530;DHT22;5313;48.834;9.228;2023-02-24T12:19:30;9.90;99.90
10530;DHT22;5313;48.834;9.228;2023-02-24T12:22:08;9.90;99.90
10530;DHT22;5313;48.834;9.228;2023-02-24T12:24:35;10.00;99.90
10530;DHT22;5313;48.834;9.228;2023-02-24T12:27:13;10.00;99.90
10530;DHT22;5313;48.834;9.228;2023-02-24T12:29:52;10.10;99.90
10530;DHT22;5313;48.834;9.228;2023-02-24T12:32:44;10.30;99.90
10530;DHT22;5313;48.834;9.228;2023-02-24T12:35:22;10.30;99.90
10530;DHT22;5313;48.834;9.228;2023-02-24T12:40:54;10.20;99.90
10530;DHT22;5313;48.834;9.228;2023-02-24T12:43:44;10.30;99.90
10530;DHT22;5313;48.834;9.228;2023-02-24T12:46:23;10.50;99.90
10530;DHT22;5313;48.834;9.228;2023-02-24T12:49:27;10.50;99.90
10530;DHT22;5313;48.834;9.228;2023-02-24T12:52:06;10.80;99.90
10530;DHT22;5313;48.834;9.228;2023-02-24T12:57:25;11.60;99.90
10530;DHT22;5313;48.834;9.228;2023-02-24T12:59:53;11.70;99.90
10530;DHT22;5313;48.834;9.228;2023-02-24T13:05:26;11.70;99.90
10530;DHT22;5313;48.834;9.228;2023-02-24T13:13:51;11.60;99.90
10530;DHT22;5313;48.834;9.228;2023-02-24T13:16:31;11.50;99.90
10530;DHT22;5313;48.834;9.228;2023-02-24T13:19:35;11.50;99.90
10530;DHT22;5313;48.834;9.228;2023-02-24T13:24:34;11.30;99.90
10530;DHT22;5313;48.834;9.228;2023-02-24T13:27:04;11.20;99.90
10530;DHT22;5313;48.834;9.228;2023-02-24T13:29:30;11.00;99.90
10530;DHT22;5313;48.834;9.228;2023-02-24T13:32:33;10.70;99.90
10530;DHT22;5313;48.834;9.228;2023-02-24T13:37:46;10.60;99.90
10530;DHT22;5313;48.834;9.228;2023-02-24T13:45:20;10.60;99.90
10530;DHT22;5313;48.834;9.228;2023-02-24T13:56:07;10.80;99.90
10530;DHT22;5313;48.834;9.228;2023-02-24T13:59:13;10.80;99.90
10530;DHT22;5313;48.834;9.228;2023-02-24T14:01:31;10.80;99.90
10530;DHT22;5313;48.834;9.228;2023-02-24T14:04:27;10.80;99.90
10530;DHT22;5313;48.834;9.228;2023-02-24T14:06:56;10.80;99.90
10530;DHT22;5313;48.834;9.228;2023-02-24T14:09:36;10.80;99.90
10530;DHT22;5313;48.834;9.228;2023-02-24T14:12:15;10.60;99.90
10530;DHT22;5313;48.834;9.228;2023-02-24T14:14:43;10.60;99.90
10530;DHT22;5313;48.834;9.228;2023-02-24T14:17:20;10.50;99.90
10530;DHT22;5313;48.834;9.228;2023-02-24T14:19:46;10.60;99.90
10530;DHT22;5313;48.834;9.228;2023-02-24T14:22:18;10.60;99.90
10530;DHT22;5313;48.834;9.228;2023-02-24T14:24:44;10.50;99.90
10530;DHT22;5313;48.834;9.228;2023-02-24T14:27:20;10.40;99.90
10530;DHT22;5313;48.834;9.228;2023-02-24T14:29:50;10.30;99.90
10530;DHT22;5313;48.834;9.228;2023-02-24T14:32:23;10.30;99.90
10530;DHT22;5313;48.834;9.228;2023-02-24T14:34:49;10.30;99.90
10530;DHT22;5313;48.834;9.228;2023-02-24T14:37:16;10.20;99.90
10530;DHT22;5313;48.834;9.228;2023-02-24T14:39:52;10.30;99.90
10530;DHT22;5313;48.834;9.228;2023-02-24T14:42:19;10.20;99.90
10530;DHT22;5313;48.834;9.228;2023-02-24T14:44:49;10.20;99.90
10530;DHT22;5313;48.834;9.228;2023-02-24T14:47:16;10.10;99.90
10530;DHT22;5313;48.834;9.228;2023-02-24T14:49:52;10.10;99.90
10530;DHT22;5313;48.834;9.228;2023-02-24T14:55:13;10.10;99.90
10530;DHT22;5313;48.834;9.228;2023-02-24T15:00:33;10.00;99.90
10530;DHT22;5313;48.834;9.228;2023-02-24T15:05:28;10.00;99.90
10530;DHT22;5313;48.834;9.228;2023-02-24T15:07:53;10.10;99.90
10530;DHT22;5313;48.834;9.228;2023-02-24T15:10:23;10.10;99.90
10530;DHT22;5313;48.834;9.228;2023-02-24T15:12:55;10.10;99.90
10530;DHT22;5313;48.834;9.228;2023-02-24T15:15:28;10.10;99.90
10530;DHT22;5313;48.834;9.228;2023-02-24T15:18:00;10.10;99.90
10530;DHT22;5313;48.834;9.228;2023-02-24T15:22:55;10.10;99.90
10530;DHT22;5313;48.834;9.228;2023-02-24T15:27:50;10.10;99.90
10530;DHT22;5313;48.834;9.228;2023-02-24T15:33:10;10.10;99.90
10530;DHT22;5313;48.834;9.228;2023-02-24T15:35:46;10.00;99.90
10530;DHT22;5313;48.834;9.228;2023-02-24T15:38:21;10.00;99.90
10530;DHT22;5313;48.834;9.228;2023-02-24T15:40:52;9.90;99.90
10530;DHT22;5313;48.834;9.228;2023-02-24T15:43:31;9.90;99.90
10530;DHT22;5313;48.834;9.228;2023-02-24T15:45:57;10.00;99.90
10530;DHT22;5313;48.834;9.228;2023-02-24T15:48:23;10.00;99.90
10530;DHT22;5313;48.834;9.228;2023-02-24T15:50:52;9.90;99.90
10530;DHT22;5313;48.834;9.228;2023-02-24T15:53:19;9.90;99.90
10530;DHT22;5313;48.834;9.228;2023-02-24T15:55:44;10.00;99.90
10530;DHT22;5313;48.834;9.228;2023-02-24T15:58:14;9.90;99.90
10530;DHT22;5313;48.834;9.228;2023-02-24T16:00:40;10.00;99.90
10530;DHT22;5313;48.834;9.228;2023-02-24T16:03:05;10.00;99.90
10530;DHT22;5313;48.834;9.228;2023-02-24T16:05:31;9.90;99.90
10530;DHT22;5313;48.834;9.228;2023-02-24T16:07:56;9.90;99.90
10530;DHT22;5313;48.834;9.228;2023-02-24T16:10:23;9.90;99.90
10530;DHT22;5313;48.834;9.228;2023-02-24T16:12:52;9.90;99.90
10530;DHT22;5313;48.834;9.228;2023-02-24T16:15:30;9.90;99.90
10530;DHT22;5313;48.834;9.228;2023-02-24T16:17:58;9.90;99.90
10530;DHT22;5313;48.834;9.228;2023-02-24T16:20:28;9.90;99.90
10530;DHT22;5313;48.834;9.228;2023-02-24T16:23:01;9.80;99.90
10530;DHT22;5313;48.834;9.228;2023-02-24T16:25:28;9.80;99.90
10530;DHT22;5313;48.834;9.228;2023-02-24T16:27:54;9.70;99.90
10530;DHT22;5313;48.834;9.228;2023-02-24T16:30:25;9.70;99.90
10530;DHT22;5313;48.834;9.228;2023-02-24T16:32:53;9.70;99.90
10530;DHT22;5313;48.834;9.228;2023-02-24T16:35:18;9.70;99.90
10530;DHT22;5313;48.834;9.228;2023-02-24T16:37:45;9.70;99.90
10530;DHT22;5313;48.834;9.228;2023-02-24T16:40:25;9.70;99.90
10530;DHT22;5313;48.834;9.228;2023-02-24T16:42:52;9.70;99.90
10530;DHT22;5313;48.834;9.228;2023-02-24T16:45:19;9.70;99.90
10530;DHT22;5313;48.834;9.228;2023-02-24T16:47:47;9.70;99.90
10530;DHT22;5313;48.834;9.228;2023-02-24T16:50:31;9.70;99.90
10530;DHT22;5313;48.834;9.228;2023-02-24T16:52:58;9.70;99.90
10530;DHT22;5313;48.834;9.228;2023-02-24T16:55:24;9.70;99.90
10530;DHT22;5313;48.834;9.228;2023-02-24T16:57:50;9.70;99.90
10530;DHT22;5313;48.834;9.228;2023-02-24T17:00:17;9.70;99.90
10530;DHT22;5313;48.834;9.228;2023-02-24T17:02:46;9.70;99.90
10530;DHT22;5313;48.834;9.228;2023-02-24T17:05:16;9.70;99.90
10530;DHT22;5313;48.834;9.228;2023-02-24T17:07:47;9.70;99.90
10530;DHT22;5313;48.834;9.228;2023-02-24T17:10:13;9.70;99.90
10530;DHT22;5313;48.834;9.228;2023-02-24T17:12:38;9.70;99.90
10530;DHT22;5313;48.834;9.228;2023-02-24T17:15:04;9.60;99.90
10530;DHT22;5313;48.834;9.228;2023-02-24T17:17:30;9.60;99.90
10530;DHT22;5313;48.834;9.228;2023-02-24T17:19:56;9.60;99.90
10530;DHT22;5313;48.834;9.228;2023-02-24T17:22:21;9.60;99.90
10530;DHT22;5313;48.834;9.228;2023-02-24T17:24:47;9.50;99.90
10530;DHT22;5313;48.834;9.228;2023-02-24T17:27:13;9.50;99.90
10530;DHT22;5313;48.834;9.228;2023-02-24T17:29:38;9.50;99.90
10530;DHT22;5313;48.834;9.228;2023-02-24T17:32:04;9.50;99.90
10530;DHT22;5313;48.834;9.228;2023-02-24T17:34:29;9.50;99.90
10530;DHT22;5313;48.834;9.228;2023-02-24T17:36:55;9.60;99.90
10530;DHT22;5313;48.834;9.228;2023-02-24T17:39:21;9.50;99.90
10530;DHT22;5313;48.834;9.228;2023-02-24T17:41:46;9.50;99.90
10530;DHT22;5313;48.834;9.228;2023-02-24T17:44:12;9.50;99.90
10530;DHT22;5313;48.834;9.228;2023-02-24T17:46:37;9.50;99.90
10530;DHT22;5313;48.834;9.228;2023-02-24T17:49:03;9.40;99.90
10530;DHT22;5313;48.834;9.228;2023-02-24T17:51:29;9.40;99.90
10530;DHT22;5313;48.834;9.228;2023-02-24T17:53:55;9.30;99.90
10530;DHT22;5313;48.834;9.228;2023-02-24T17:56:21;9.40;99.90
10530;DHT22;5313;48.834;9.228;2023-02-24T17:58:46;9.40;99.90
10530;DHT22;5313;48.834;9.228;2023-02-24T18:01:12;9.40;99.90
10530;DHT22;5313;48.834;9.228;2023-02-24T18:03:37;9.40;99.90
10530;DHT22;5313;48.834;9.228;2023-02-24T18:06:09;9.40;99.90
10530;DHT22;5313;48.834;9.228;2023-02-24T18:08:36;9.30;99.90
10530;DHT22;5313;48.834;9.228;2023-02-24T18:11:03;9.30;99.90
10530;DHT22;5313;48.834;9.228;2023-02-24T18:13:30;9.30;99.90
10530;DHT22;5313;48.834;9.228;2023-02-24T18:15:56;9.30;99.90
10530;DHT22;5313;48.834;9.228;2023-02-24T18:18:23;9.30;99.90
10530;DHT22;5313;48.834;9.228;2023-02-24T18:20:49;9.40;99.90
10530;DHT22;5313;48.834;9.228;2023-02-24T18:23:15;9.30;99.90